Time;durP1;ratioP1;P1;durP2;ratioP2;P2;SDS_P1;SDS_P2;PMS_P1;PMS_P2;Temp;Humidity;BMP_temperature;BMP_pressure;BME280_temperature;BME280_humidity;BME280_pressure;Samples;Min_cycle;Max_cycle;Signal;HPM_P1;HPM_P2
2023/11/08 00:00:13;;;;;;;3.38;0.95;;;7.50;99.90;;;;;;5006335;28;20025;-67
2023/11/08 00:02:39;;;;;;;5.80;1.15;;;7.50;99.90;;;;;;5024975;28;20026;-67
2023/11/08 00:05:05;;;;;;;3.72;1.10;;;7.50;99.90;;;;;;5024596;28;20124;-67
2023/11/08 00:07:31;;;;;;;5.82;1.08;;;7.50;99.90;;;;;;5025967;28;20017;-68
2023/11/08 00:09:57;;;;;;;3.65;1.00;;;7.50;99.90;;;;;;5006247;28;20030;-67
2023/11/08 00:12:24;;;;;;;9.88;1.38;;;7.50;99.90;;;;;;5006482;28;20124;-67
2023/11/08 00:14:50;;;;;;;9.85;1.27;;;7.50;99.90;;;;;;5021786;28;20574;-68
2023/11/08 00:17:16;;;;;;;6.55;1.10;;;7.50;99.90;;;;;;5025960;28;20045;-68
2023/11/08 00:19:41;;;;;;;5.28;1.15;;;7.50;99.90;;;;;;5025619;28;20032;-68
2023/11/08 00:22:07;;;;;;;2.25;0.77;;;7.60;99.90;;;;;;5023979;28;20030;-67
2023/11/08 00:24:33;;;;;;;4.10;1.10;;;7.50;99.90;;;;;;5025869;28;20548;-68
2023/11/08 00:26:59;;;;;;;3.50;1.00;;;7.60;99.90;;;;;;5024162;28;20036;-68
2023/11/08 00:29:25;;;;;;;4.32;1.20;;;7.60;99.90;;;;;;5025565;28;20033;-68
2023/11/08 00:31:52;;;;;;;2.80;1.30;;;7.60;99.90;;;;;;5024127;28;20518;-68
2023/11/08 00:34:19;;;;;;;3.30;1.50;;;7.60;99.90;;;;;;5021285;28;20044;-68
2023/11/08 00:36:45;;;;;;;2.33;0.90;;;7.60;99.90;;;;;;5020452;28;20064;-67
2023/11/08 00:39:11;;;;;;;3.20;0.90;;;7.60;99.90;;;;;;5024722;28;20056;-68
2023/11/08 00:41:36;;;;;;;2.58;1.38;;;7.60;99.90;;;;;;5012968;28;20053;-68
2023/11/08 00:44:02;;;;;;;5.57;1.42;;;7.60;99.90;;;;;;5024519;28;20064;-68
2023/11/08 00:46:28;;;;;;;2.17;0.90;;;7.70;99.90;;;;;;5043084;28;20041;-68
2023/11/08 00:48:53;;;;;;;11.00;2.42;;;7.70;99.90;;;;;;5043310;28;20025;-68
2023/11/08 00:51:22;;;;;;;4.35;1.05;;;7.70;99.90;;;;;;5045777;28;20082;-68
2023/11/08 00:53:47;;;;;;;1.55;0.90;;;7.70;99.90;;;;;;5042571;28;20063;-68
2023/11/08 00:56:13;;;;;;;3.88;1.30;;;7.70;99.90;;;;;;5045798;28;20037;-68
2023/11/08 00:58:39;;;;;;;4.72;1.08;;;7.70;99.90;;;;;;5039237;28;20029;-68
2023/11/08 01:01:08;;;;;;;3.97;1.10;;;7.70;99.90;;;;;;5040446;28;20521;-68
2023/11/08 01:03:33;;;;;;;5.95;1.35;;;7.80;99.90;;;;;;5043387;28;20060;-67
2023/11/08 01:05:59;;;;;;;6.40;1.50;;;7.80;99.90;;;;;;5043099;28;20525;-67
2023/11/08 01:08:24;;;;;;;2.80;0.80;;;7.70;99.90;;;;;;5042804;28;20021;-67
2023/11/08 01:10:51;;;;;;;7.00;1.42;;;7.80;99.90;;;;;;5042214;28;20063;-67
2023/11/08 01:13:18;;;;;;;3.08;1.00;;;7.80;99.90;;;;;;5041321;28;20500;-67
2023/11/08 01:15:43;;;;;;;3.42;1.02;;;7.80;99.90;;;;;;5043647;28;20127;-67
2023/11/08 01:18:12;;;;;;;4.80;0.70;;;7.80;99.90;;;;;;5041170;28;20302;-67
2023/11/08 01:20:41;;;;;;;2.42;1.00;;;7.80;99.90;;;;;;5040605;28;20032;-67
2023/11/08 01:23:06;;;;;;;3.33;1.70;;;7.80;99.90;;;;;;5043325;28;20107;-67
2023/11/08 01:25:32;;;;;;;3.47;1.20;;;7.80;99.90;;;;;;5040566;28;20063;-67
2023/11/08 01:27:57;;;;;;;4.25;1.45;;;7.80;99.90;;;;;;5039092;28;20029;-67
2023/11/08 01:30:23;;;;;;;3.80;0.95;;;7.80;99.90;;;;;;5042121;28;20021;-68
2023/11/08 01:32:49;;;;;;;7.18;1.10;;;7.80;99.90;;;;;;5040174;28;20033;-66
2023/11/08 01:35:15;;;;;;;2.78;1.42;;;7.90;99.90;;;;;;5040161;28;20498;-66
2023/11/08 01:37:40;;;;;;;0.63;0.60;;;7.80;99.90;;;;;;5019886;28;20402;-67
2023/11/08 01:40:08;;;;;;;9.68;1.00;;;7.90;99.90;;;;;;5039606;28;20025;-67
2023/11/08 01:42:34;;;;;;;3.05;0.80;;;7.90;99.90;;;;;;5022771;28;20053;-66
2023/11/08 01:45:00;;;;;;;4.38;1.38;;;7.90;99.90;;;;;;5042657;28;20029;-66
2023/11/08 01:47:26;;;;;;;4.95;1.10;;;7.90;99.90;;;;;;5039023;28;21838;-68
2023/11/08 01:49:53;;;;;;;9.30;1.60;;;7.90;99.90;;;;;;5043049;28;20862;-67
2023/11/08 01:52:20;;;;;;;8.98;1.50;;;7.90;99.90;;;;;;5040260;28;20162;-67
2023/11/08 01:54:49;;;;;;;6.07;1.13;;;8.00;99.90;;;;;;5040303;28;20095;-67
2023/11/08 01:57:15;;;;;;;4.32;1.45;;;8.00;99.90;;;;;;5039200;28;20025;-68
2023/11/08 01:59:42;;;;;;;7.65;1.10;;;8.00;99.90;;;;;;5041009;28;20124;-67
2023/11/08 02:02:08;;;;;;;2.75;1.20;;;8.00;99.90;;;;;;5038738;28;20029;-67
2023/11/08 02:04:35;;;;;;;2.15;0.88;;;8.00;99.90;;;;;;5040807;28;20087;-67
2023/11/08 02:07:01;;;;;;;5.15;1.90;;;8.00;99.90;;;;;;5039141;28;20116;-67
2023/11/08 02:09:30;;;;;;;7.10;1.10;;;8.00;99.90;;;;;;5043173;28;20040;-67
2023/11/08 02:12:00;;;;;;;4.25;1.02;;;8.00;99.90;;;;;;5040784;28;20503;-67
2023/11/08 02:14:26;;;;;;;6.15;1.20;;;8.00;99.90;;;;;;5038762;28;20040;-67
2023/11/08 02:16:51;;;;;;;1.45;0.80;;;8.00;99.90;;;;;;5039512;28;20032;-67
2023/11/08 02:19:17;;;;;;;3.25;1.40;;;8.00;99.90;;;;;;5040215;28;20025;-67
2023/11/08 02:21:42;;;;;;;3.03;1.02;;;7.90;99.90;;;;;;5042354;28;20143;-67
2023/11/08 02:24:19;;;;;;;1.95;0.80;;;7.90;99.90;;;;;;5024826;28;20105;-67
2023/11/08 02:26:47;;;;;;;6.07;0.73;;;7.90;99.90;;;;;;5037413;28;20126;-67
2023/11/08 02:29:12;;;;;;;5.95;1.38;;;7.90;99.90;;;;;;5045163;28;20025;-67
2023/11/08 02:31:38;;;;;;;2.90;0.75;;;7.90;99.90;;;;;;5040119;28;20067;-67
2023/11/08 02:34:05;;;;;;;4.30;0.80;;;7.90;99.90;;;;;;5025519;28;20041;-67
2023/11/08 02:36:33;;;;;;;2.20;0.85;;;7.90;99.90;;;;;;5044467;28;20510;-67
2023/11/08 02:38:59;;;;;;;1.40;0.60;;;8.00;99.90;;;;;;5041468;28;20021;-67
2023/11/08 02:41:24;;;;;;;2.63;0.80;;;8.00;99.90;;;;;;4999970;28;20029;-67
2023/11/08 02:43:50;;;;;;;7.22;1.13;;;8.00;99.90;;;;;;5046368;28;20028;-67
2023/11/08 02:46:15;;;;;;;7.60;1.25;;;8.00;99.90;;;;;;5047153;28;20033;-67
2023/11/08 02:48:42;;;;;;;2.67;1.17;;;8.00;99.90;;;;;;5028353;28;20025;-67
2023/11/08 02:51:08;;;;;;;3.70;1.20;;;8.00;99.90;;;;;;5044078;28;20029;-67
2023/11/08 02:53:34;;;;;;;1.90;1.05;;;8.00;99.90;;;;;;5048172;28;20041;-67
2023/11/08 02:55:59;;;;;;;2.65;1.00;;;8.00;99.90;;;;;;5045370;28;20899;-67
2023/11/08 02:58:25;;;;;;;1.70;0.80;;;8.10;99.90;;;;;;5042982;28;20036;-67
2023/11/08 03:00:54;;;;;;;2.88;1.13;;;8.10;99.90;;;;;;5043544;28;20466;-67
2023/11/08 03:03:20;;;;;;;2.25;1.05;;;8.10;99.90;;;;;;5045946;28;20044;-67
2023/11/08 03:05:46;;;;;;;4.30;1.40;;;8.10;99.90;;;;;;5043079;28;20104;-67
2023/11/08 03:08:12;;;;;;;9.30;1.65;;;8.10;99.90;;;;;;5044189;28;20055;-66
2023/11/08 03:10:38;;;;;;;2.28;1.02;;;8.00;99.90;;;;;;5043837;28;20063;-67
2023/11/08 03:13:04;;;;;;;7.30;1.15;;;8.00;99.90;;;;;;5045681;28;20037;-67
2023/11/08 03:15:32;;;;;;;5.38;1.02;;;8.00;99.90;;;;;;5043140;28;20047;-67
2023/11/08 03:17:57;;;;;;;5.07;1.23;;;8.00;99.90;;;;;;5044883;28;20041;-67
2023/11/08 03:20:24;;;;;;;3.67;1.02;;;8.10;99.90;;;;;;5044367;28;20360;-67
2023/11/08 03:22:49;;;;;;;4.38;1.45;;;8.00;99.90;;;;;;5043156;28;20435;-67
2023/11/08 03:25:16;;;;;;;6.38;1.98;;;8.00;99.90;;;;;;5042725;28;20040;-67
2023/11/08 03:27:43;;;;;;;4.15;1.10;;;8.00;99.90;;;;;;5041801;28;20033;-67
2023/11/08 03:30:12;;;;;;;5.07;1.48;;;8.00;99.90;;;;;;5043263;28;20037;-67
2023/11/08 03:32:38;;;;;;;6.38;1.20;;;8.00;99.90;;;;;;5040082;28;20037;-67
2023/11/08 03:35:05;;;;;;;3.88;1.33;;;8.00;99.90;;;;;;5039999;28;20059;-67
2023/11/08 03:37:34;;;;;;;3.33;0.98;;;8.10;99.90;;;;;;5037297;28;20128;-67
2023/11/08 03:40:02;;;;;;;6.13;1.00;;;8.10;99.90;;;;;;5044813;28;20024;-67
2023/11/08 03:42:27;;;;;;;0.77;0.50;;;8.10;99.90;;;;;;5030371;28;20041;-66
2023/11/08 03:44:53;;;;;;;1.25;0.73;;;8.10;99.90;;;;;;5042350;28;20044;-67
2023/11/08 03:47:20;;;;;;;7.47;0.90;;;8.10;99.90;;;;;;5040922;28;20041;-67
2023/11/08 03:49:45;;;;;;;4.20;0.85;;;8.10;99.90;;;;;;5020162;28;20037;-67
2023/11/08 03:52:11;;;;;;;3.75;1.23;;;8.00;99.90;;;;;;5041528;28;20044;-67
2023/11/08 03:54:36;;;;;;;0.88;0.70;;;8.00;99.90;;;;;;5042810;28;20426;-67
2023/11/08 03:57:02;;;;;;;5.10;1.17;;;8.00;99.90;;;;;;5040610;28;20059;-67
2023/11/08 03:59:27;;;;;;;4.30;1.33;;;8.10;99.90;;;;;;5042900;28;20033;-67
2023/11/08 04:01:53;;;;;;;1.48;0.98;;;8.10;99.90;;;;;;5041026;28;20417;-68
2023/11/08 04:04:19;;;;;;;6.47;1.42;;;8.00;99.90;;;;;;5039995;28;20067;-66
2023/11/08 04:06:45;;;;;;;1.45;0.75;;;8.00;99.90;;;;;;5041428;28;20037;-66
2023/11/08 04:09:10;;;;;;;6.25;0.82;;;8.00;99.90;;;;;;5042181;28;20032;-68
2023/11/08 04:11:36;;;;;;;1.67;0.65;;;8.00;99.90;;;;;;5044117;28;20037;-66
2023/11/08 04:14:01;;;;;;;2.90;1.02;;;8.00;99.90;;;;;;5040439;28;20544;-66
2023/11/08 04:16:27;;;;;;;2.97;0.90;;;8.00;99.90;;;;;;5046347;28;20525;-66
2023/11/08 04:18:53;;;;;;;2.65;1.27;;;8.10;99.90;;;;;;5043885;28;20032;-66
2023/11/08 04:21:18;;;;;;;7.38;1.58;;;8.10;99.90;;;;;;5043251;28;20028;-67
2023/11/08 04:23:44;;;;;;;5.15;0.60;;;8.10;99.90;;;;;;5040449;28;20040;-67
2023/11/08 04:26:10;;;;;;;2.67;0.80;;;8.10;99.90;;;;;;5045312;28;20480;-67
2023/11/08 04:28:40;;;;;;;4.72;1.00;;;8.10;99.90;;;;;;5041113;28;20033;-67
2023/11/08 04:31:05;;;;;;;3.20;0.85;;;8.10;99.90;;;;;;5041265;28;20033;-67
2023/11/08 04:33:31;;;;;;;5.80;1.38;;;8.10;99.90;;;;;;5040897;28;20525;-67
2023/11/08 04:35:58;;;;;;;5.90;1.38;;;8.10;99.90;;;;;;5042207;28;20099;-67
2023/11/08 04:38:24;;;;;;;6.93;1.20;;;8.10;99.90;;;;;;5045513;28;20032;-67
2023/11/08 04:40:49;;;;;;;3.28;0.80;;;8.10;99.90;;;;;;5041233;28;20025;-67
2023/11/08 04:43:15;;;;;;;5.80;0.90;;;8.10;99.90;;;;;;5009860;28;20046;-67
2023/11/08 04:45:41;;;;;;;3.05;1.08;;;8.10;99.90;;;;;;5021491;28;20095;-66
2023/11/08 04:48:06;;;;;;;1.38;0.90;;;8.10;99.90;;;;;;5021866;28;20387;-67
2023/11/08 04:50:32;;;;;;;1.45;0.82;;;8.10;99.90;;;;;;5020982;28;20037;-67
2023/11/08 04:52:57;;;;;;;6.20;1.17;;;8.10;99.90;;;;;;5020695;28;20037;-67
2023/11/08 04:55:23;;;;;;;2.88;1.08;;;8.10;99.90;;;;;;5019450;28;20418;-68
2023/11/08 04:57:48;;;;;;;6.38;1.25;;;8.20;99.90;;;;;;5019902;28;20376;-67
2023/11/08 05:00:14;;;;;;;3.28;0.80;;;8.10;99.90;;;;;;5019865;28;20411;-66
2023/11/08 05:02:41;;;;;;;4.25;1.08;;;8.10;99.90;;;;;;5019235;28;20168;-67
2023/11/08 05:05:09;;;;;;;2.70;0.93;;;8.10;99.90;;;;;;5023456;28;20018;-67
2023/11/08 05:07:35;;;;;;;2.15;1.10;;;8.20;99.90;;;;;;5020080;28;20033;-67
2023/11/08 05:10:01;;;;;;;4.40;1.30;;;8.20;99.90;;;;;;5021839;28;20029;-67
2023/11/08 05:12:27;;;;;;;3.95;1.05;;;8.10;99.90;;;;;;5020680;28;20049;-67
2023/11/08 05:14:53;;;;;;;3.80;0.68;;;8.20;99.90;;;;;;5020630;28;20038;-67
2023/11/08 05:17:20;;;;;;;2.30;0.82;;;8.10;99.90;;;;;;5014350;28;20021;-69
2023/11/08 05:19:46;;;;;;;3.13;0.80;;;8.10;99.90;;;;;;5020405;28;20032;-67
2023/11/08 05:22:12;;;;;;;6.10;1.02;;;8.10;99.90;;;;;;5020016;28;20029;-68
2023/11/08 05:24:38;;;;;;;2.83;0.85;;;8.20;99.90;;;;;;5024629;28;20112;-67
2023/11/08 05:27:04;;;;;;;3.45;1.17;;;8.10;99.90;;;;;;5023523;28;20127;-67
2023/11/08 05:29:31;;;;;;;5.28;0.80;;;8.10;99.90;;;;;;5019891;28;20029;-66
2023/11/08 05:31:57;;;;;;;4.85;1.05;;;8.10;99.90;;;;;;5022617;28;20057;-67
2023/11/08 05:34:25;;;;;;;7.90;1.45;;;8.10;99.90;;;;;;5022964;28;20526;-68
2023/11/08 05:36:51;;;;;;;4.72;1.00;;;8.10;99.90;;;;;;4988882;28;20147;-67
2023/11/08 05:39:22;;;;;;;5.53;1.15;;;8.10;99.90;;;;;;5020579;28;20061;-67
2023/11/08 05:41:48;;;;;;;1.98;0.90;;;8.10;99.90;;;;;;5021671;28;20021;-67
2023/11/08 05:44:15;;;;;;;5.65;1.58;;;8.10;99.90;;;;;;4997535;28;20050;-67
2023/11/08 05:46:41;;;;;;;2.75;0.68;;;8.10;99.90;;;;;;5023299;28;20037;-67
2023/11/08 05:49:07;;;;;;;2.38;0.90;;;8.00;99.90;;;;;;5023699;28;20037;-67
2023/11/08 05:51:34;;;;;;;3.00;1.05;;;8.00;99.90;;;;;;5023449;28;20022;-67
2023/11/08 05:54:00;;;;;;;2.50;0.80;;;8.10;99.90;;;;;;5023361;28;20033;-67
2023/11/08 05:56:25;;;;;;;2.72;0.90;;;8.10;99.90;;;;;;5022614;28;20045;-68
2023/11/08 05:58:51;;;;;;;2.40;0.70;;;8.10;99.90;;;;;;5011484;28;20080;-67
2023/11/08 06:01:19;;;;;;;2.25;0.88;;;8.10;99.90;;;;;;5035521;28;20029;-67
2023/11/08 06:03:45;;;;;;;3.95;1.45;;;8.10;99.90;;;;;;5030819;28;20033;-68
2023/11/08 06:06:10;;;;;;;6.13;1.67;;;8.10;99.90;;;;;;5031933;28;20029;-67
2023/11/08 06:08:36;;;;;;;4.35;1.80;;;8.10;99.90;;;;;;5037130;28;20029;-67
2023/11/08 06:11:04;;;;;;;6.80;1.25;;;8.00;99.90;;;;;;5038366;28;20053;-67
2023/11/08 06:13:32;;;;;;;4.45;1.23;;;8.10;99.90;;;;;;5035324;28;20033;-67
2023/11/08 06:15:58;;;;;;;5.22;1.15;;;8.10;99.90;;;;;;5018196;28;20039;-68
2023/11/08 06:18:26;;;;;;;4.60;1.08;;;8.00;99.90;;;;;;5037569;28;20386;-66
2023/11/08 06:20:52;;;;;;;2.70;1.30;;;8.00;99.90;;;;;;5034506;28;20030;-67
2023/11/08 06:23:18;;;;;;;2.35;1.20;;;8.00;99.90;;;;;;5033332;28;20057;-68
2023/11/08 06:25:43;;;;;;;2.00;0.88;;;8.00;99.90;;;;;;5035960;28;20021;-68
2023/11/08 06:28:09;;;;;;;5.45;0.95;;;8.00;99.90;;;;;;5034534;28;20033;-68
2023/11/08 06:30:35;;;;;;;6.40;0.98;;;8.00;99.90;;;;;;5033981;28;20705;-68
2023/11/08 06:33:02;;;;;;;5.95;0.90;;;8.00;99.90;;;;;;5035388;28;20025;-67
2023/11/08 06:35:27;;;;;;;3.10;1.23;;;8.10;99.90;;;;;;5038238;28;20029;-67
2023/11/08 06:37:53;;;;;;;4.63;0.65;;;8.10;99.90;;;;;;5035679;28;20032;-68
2023/11/08 06:40:19;;;;;;;6.15;0.90;;;8.10;99.90;;;;;;5036673;28;20112;-68
2023/11/08 06:42:44;;;;;;;1.75;0.60;;;8.20;99.90;;;;;;5017989;28;20053;-67
2023/11/08 06:45:10;;;;;;;3.42;1.10;;;8.20;99.90;;;;;;5046213;28;20056;-67
2023/11/08 06:47:36;;;;;;;7.75;1.08;;;8.20;99.90;;;;;;5048197;28;20522;-68
2023/11/08 06:50:02;;;;;;;2.60;1.33;;;8.20;99.90;;;;;;5048222;28;20745;-67
2023/11/08 06:52:28;;;;;;;6.80;1.27;;;8.30;99.90;;;;;;5049269;28;20028;-67
2023/11/08 06:54:54;;;;;;;4.43;1.23;;;8.30;99.90;;;;;;5046676;28;20025;-67
2023/11/08 06:57:20;;;;;;;5.40;1.35;;;8.30;99.90;;;;;;5047639;28;20209;-67
2023/11/08 06:59:45;;;;;;;3.38;1.15;;;8.30;99.90;;;;;;5048405;28;20036;-68
2023/11/08 07:02:11;;;;;;;3.25;1.00;;;8.30;99.90;;;;;;5047228;28;20025;-66
2023/11/08 07:04:38;;;;;;;5.80;1.25;;;8.30;99.90;;;;;;5046197;28;20036;-67
2023/11/08 07:07:04;;;;;;;3.17;1.10;;;8.40;99.90;;;;;;5029328;28;20039;-67
2023/11/08 07:09:30;;;;;;;4.88;1.00;;;8.40;99.90;;;;;;5047906;28;20037;-67
2023/11/08 07:11:57;;;;;;;4.00;1.08;;;8.50;99.90;;;;;;5048195;28;20056;-67
2023/11/08 07:14:23;;;;;;;2.47;0.70;;;8.50;99.90;;;;;;5045913;28;20047;-67
2023/11/08 07:16:49;;;;;;;5.53;1.10;;;8.50;99.90;;;;;;5047463;28;20376;-68
2023/11/08 07:19:14;;;;;;;5.93;1.35;;;8.60;99.90;;;;;;5045088;28;20036;-67
2023/11/08 07:21:40;;;;;;;2.90;0.95;;;8.60;99.90;;;;;;5045735;28;20033;-67
2023/11/08 07:24:09;;;;;;;3.10;0.93;;;8.60;99.90;;;;;;5047757;28;20025;-67
2023/11/08 07:26:35;;;;;;;5.05;1.48;;;8.60;99.90;;;;;;5045758;28;20036;-67
2023/11/08 07:29:04;;;;;;;2.22;1.02;;;8.70;99.90;;;;;;5045472;28;20049;-67
2023/11/08 07:31:33;;;;;;;4.28;1.00;;;8.70;99.90;;;;;;5047702;28;20025;-67
2023/11/08 07:33:59;;;;;;;4.57;1.20;;;8.80;99.90;;;;;;5029346;28;20033;-67
2023/11/08 07:36:25;;;;;;;3.97;0.80;;;8.80;99.90;;;;;;5046037;28;20040;-67
2023/11/08 07:38:51;;;;;;;3.97;0.80;;;8.90;99.90;;;;;;5047501;28;20021;-67
2023/11/08 07:41:17;;;;;;;3.65;1.05;;;9.00;99.90;;;;;;5047225;28;20414;-67
2023/11/08 07:43:43;;;;;;;8.10;1.58;;;9.20;99.90;;;;;;5017586;28;20130;-67
2023/11/08 07:46:08;;;;;;;3.42;0.88;;;9.30;99.90;;;;;;5024547;28;20045;-67
2023/11/08 07:48:34;;;;;;;2.60;1.15;;;9.50;99.90;;;;;;5033020;28;20037;-67
2023/11/08 07:51:00;;;;;;;6.28;0.93;;;9.60;99.90;;;;;;5026198;28;20030;-68
2023/11/08 07:53:26;;;;;;;2.28;1.13;;;9.70;99.90;;;;;;5025589;28;20052;-67
2023/11/08 07:55:54;;;;;;;7.43;1.52;;;9.70;99.90;;;;;;5028172;28;20507;-67
2023/11/08 07:58:20;;;;;;;6.90;1.10;;;9.80;99.90;;;;;;5027861;28;20033;-68
2023/11/08 08:00:45;;;;;;;5.43;1.25;;;9.80;99.90;;;;;;5027826;28;20479;-67
2023/11/08 08:03:15;;;;;;;4.40;1.20;;;9.80;99.90;;;;;;5027516;28;20030;-67
2023/11/08 08:05:42;;;;;;;2.58;1.30;;;9.80;99.90;;;;;;5026849;28;20400;-67
2023/11/08 08:08:09;;;;;;;2.65;1.27;;;9.80;99.90;;;;;;5027153;28;20087;-67
2023/11/08 08:10:35;;;;;;;5.65;1.00;;;9.80;99.90;;;;;;5009758;28;20503;-68
2023/11/08 08:13:03;;;;;;;7.05;1.30;;;9.90;99.90;;;;;;5026701;28;20056;-68
2023/11/08 08:15:29;;;;;;;5.82;1.67;;;9.80;99.90;;;;;;5025923;28;20411;-68
2023/11/08 08:17:55;;;;;;;2.97;1.10;;;9.80;99.90;;;;;;5025779;28;20033;-68
2023/11/08 08:20:21;;;;;;;5.88;2.35;;;9.70;99.90;;;;;;5027541;28;20156;-68
2023/11/08 08:22:47;;;;;;;23.13;8.98;;;9.80;99.90;;;;;;5027486;28;20049;-68
2023/11/08 08:25:13;;;;;;;12.35;7.13;;;9.70;99.90;;;;;;5026150;28;20061;-67
2023/11/08 08:27:40;;;;;;;13.48;9.07;;;9.70;99.90;;;;;;5022679;28;21241;-67
2023/11/08 08:30:14;;;;;;;7.28;4.35;;;9.60;99.90;;;;;;5026651;28;20033;-67
2023/11/08 08:32:47;;;;;;;3.38;1.77;;;9.50;99.90;;;;;;5023904;28;20072;-66
2023/11/08 08:35:13;;;;;;;5.90;2.80;;;9.50;99.90;;;;;;5025755;28;20171;-67
2023/11/08 08:37:39;;;;;;;3.13;1.80;;;9.40;99.90;;;;;;5026150;28;20306;-67
2023/11/08 08:40:10;;;;;;;6.43;1.48;;;9.50;99.90;;;;;;5026579;28;20033;-67
2023/11/08 08:42:43;;;;;;;6.97;1.30;;;9.50;99.90;;;;;;5024653;28;20541;-66
2023/11/08 08:45:09;;;;;;;4.05;1.05;;;9.60;99.90;;;;;;5025002;28;20038;-67
2023/11/08 08:47:36;;;;;;;4.57;1.52;;;9.60;99.90;;;;;;5009848;28;20046;-66
2023/11/08 08:50:02;;;;;;;5.47;1.25;;;9.60;99.90;;;;;;5025908;28;20033;-67
2023/11/08 08:52:29;;;;;;;5.82;1.38;;;9.60;99.90;;;;;;5026112;28;20407;-67
2023/11/08 08:54:54;;;;;;;11.13;2.53;;;9.70;99.90;;;;;;5024722;28;20052;-67
2023/11/08 08:57:20;;;;;;;8.90;4.03;;;9.60;99.90;;;;;;5025898;28;20052;-68
2023/11/08 08:59:45;;;;;;;22.33;8.25;;;9.70;99.90;;;;;;5024833;28;20033;-67
2023/11/08 09:02:11;;;;;;;20.88;6.95;;;9.70;99.90;;;;;;5023822;28;20042;-67
2023/11/08 09:04:37;;;;;;;12.50;3.85;;;9.80;99.90;;;;;;5024678;28;20419;-67
2023/11/08 09:07:03;;;;;;;4.75;2.45;;;9.80;99.90;;;;;;5026845;28;20068;-67
2023/11/08 09:09:30;;;;;;;15.27;5.10;;;9.80;99.90;;;;;;5007694;28;20114;-66
2023/11/08 09:11:57;;;;;;;14.02;4.82;;;9.90;99.90;;;;;;5024355;28;20037;-67
2023/11/08 09:14:23;;;;;;;10.55;5.45;;;10.00;99.90;;;;;;5024784;28;20083;-67
2023/11/08 09:16:49;;;;;;;6.63;2.58;;;10.00;99.90;;;;;;5026677;28;20032;-68
2023/11/08 09:19:14;;;;;;;3.47;1.70;;;10.10;99.90;;;;;;5024239;28;20033;-67
2023/11/08 09:21:42;;;;;;;7.03;1.98;;;10.20;99.90;;;;;;5026503;28;20087;-68
2023/11/08 09:24:09;;;;;;;4.93;1.52;;;10.40;99.90;;;;;;5025262;28;20029;-67
2023/11/08 09:26:35;;;;;;;17.77;7.10;;;10.60;99.90;;;;;;5026916;28;20018;-68
2023/11/08 09:29:01;;;;;;;10.35;3.60;;;10.80;99.90;;;;;;5024874;28;20033;-67
2023/11/08 09:31:27;;;;;;;9.32;5.15;;;10.90;99.90;;;;;;5025438;28;20037;-67
2023/11/08 09:34:00;;;;;;;11.35;3.63;;;11.10;99.90;;;;;;5025647;28;20033;-66
2023/11/08 09:36:26;;;;;;;12.77;4.85;;;11.40;99.90;;;;;;5026726;28;20080;-67
2023/11/08 09:38:53;;;;;;;6.53;3.40;;;11.60;99.90;;;;;;5022198;28;20757;-67
2023/11/08 09:41:19;;;;;;;6.50;2.30;;;11.70;99.90;;;;;;5025198;28;20017;-67
2023/11/08 09:43:51;;;;;;;20.33;9.95;;;11.70;99.90;;;;;;5014300;28;20113;-67
2023/11/08 09:46:17;;;;;;;10.20;4.57;;;11.70;99.90;;;;;;5025444;28;20100;-67
2023/11/08 09:48:45;;;;;;;9.05;2.50;;;11.90;99.90;;;;;;5025032;28;20056;-67
2023/11/08 09:51:12;;;;;;;12.30;2.72;;;11.90;99.90;;;;;;5025039;28;20029;-67
2023/11/08 09:53:38;;;;;;;8.23;2.70;;;12.10;99.90;;;;;;5024539;28;20022;-67
2023/11/08 09:56:04;;;;;;;5.22;2.00;;;12.10;99.90;;;;;;5022594;28;20843;-68
2023/11/08 09:58:32;;;;;;;7.97;2.58;;;12.00;99.90;;;;;;5024936;28;20049;-66
2023/11/08 10:00:59;;;;;;;5.65;1.48;;;11.90;99.90;;;;;;5022549;28;20040;-66
2023/11/08 10:03:25;;;;;;;4.93;1.90;;;11.80;99.90;;;;;;5022787;28;20037;-66
2023/11/08 10:05:54;;;;;;;4.72;1.85;;;11.80;99.90;;;;;;5025538;28;20022;-67
2023/11/08 10:08:19;;;;;;;3.40;1.35;;;11.70;99.90;;;;;;5025561;28;20025;-68
2023/11/08 10:10:48;;;;;;;5.68;1.20;;;11.60;99.90;;;;;;5024113;28;20444;-68
2023/11/08 10:13:15;;;;;;;3.47;1.60;;;11.60;99.90;;;;;;5026242;28;20196;-68
2023/11/08 10:15:41;;;;;;;8.70;1.50;;;11.60;99.90;;;;;;5025055;28;20048;-68
2023/11/08 10:18:08;;;;;;;4.15;1.40;;;11.60;99.90;;;;;;5022859;28;20025;-68
2023/11/08 10:20:37;;;;;;;3.80;1.38;;;11.60;99.90;;;;;;5024692;28;20040;-67
2023/11/08 10:23:06;;;;;;;4.07;1.30;;;11.70;99.90;;;;;;5025105;28;20031;-67
2023/11/08 10:25:32;;;;;;;5.22;0.95;;;11.80;99.90;;;;;;5020634;28;20053;-67
2023/11/08 10:28:06;;;;;;;6.38;2.05;;;12.00;99.90;;;;;;5024587;28;20037;-67
2023/11/08 10:30:33;;;;;;;;;;;12.10;99.90;;;;;;5024648;28;20049;-68
2023/11/08 10:33:10;;;;;;;10.02;1.30;;;12.10;99.90;;;;;;5023296;28;20402;-68
2023/11/08 10:35:37;;;;;;;9.70;2.35;;;12.30;99.90;;;;;;5005972;28;20035;-67
2023/11/08 10:38:05;;;;;;;5.72;1.40;;;12.30;99.90;;;;;;5023004;28;20068;-68
2023/11/08 10:40:32;;;;;;;3.53;1.17;;;12.40;99.90;;;;;;5006895;28;20068;-68
2023/11/08 10:42:58;;;;;;;15.43;5.25;;;12.30;99.90;;;;;;5025368;28;20096;-68
2023/11/08 10:45:25;;;;;;;11.93;2.40;;;12.20;99.90;;;;;;5005797;28;20138;-68
2023/11/08 10:47:51;;;;;;;12.73;5.72;;;12.00;99.90;;;;;;5024030;28;20030;-68
2023/11/08 10:50:18;;;;;;;9.80;4.13;;;11.70;99.90;;;;;;5023312;28;20123;-69
2023/11/08 10:52:46;;;;;;;9.05;3.70;;;11.50;99.90;;;;;;5023839;28;20033;-67
2023/11/08 10:55:12;;;;;;;6.53;2.80;;;11.30;99.90;;;;;;5027482;28;20037;-67
2023/11/08 10:57:41;;;;;;;8.68;2.42;;;11.10;99.90;;;;;;5028554;28;20029;-67
2023/11/08 11:00:08;;;;;;;12.40;3.97;;;11.10;99.90;;;;;;5026762;28;20021;-67
2023/11/08 11:02:49;;;;;;;12.23;4.47;;;11.10;99.90;;;;;;5042540;28;20635;-67
2023/11/08 11:05:20;;;;;;;2.40;1.42;;;11.20;99.90;;;;;;5028588;28;20044;-67
2023/11/08 11:07:47;;;;;;;7.50;2.53;;;11.30;99.90;;;;;;5025195;28;20156;-67
2023/11/08 11:10:15;;;;;;;5.80;1.92;;;11.30;99.90;;;;;;5027313;28;20029;-66
2023/11/08 11:12:59;;;;;;;15.52;3.35;;;11.30;99.90;;;;;;5026753;28;20046;-67
2023/11/08 11:15:59;;;;;;;13.50;5.25;;;11.40;99.90;;;;;;5027562;28;20048;-67
2023/11/08 11:18:33;;;;;;;9.38;4.05;;;11.30;99.90;;;;;;5015987;28;20527;-67
2023/11/08 11:21:21;;;;;;;4.45;1.80;;;11.40;99.90;;;;;;5027477;28;20029;-66
2023/11/08 11:23:46;;;;;;;6.70;2.03;;;11.30;99.90;;;;;;5018585;28;20064;-68
2023/11/08 11:26:12;;;;;;;7.05;2.33;;;11.30;99.90;;;;;;5026589;28;20130;-65
2023/11/08 11:28:57;;;;;;;7.45;2.20;;;11.40;99.90;;;;;;5026760;28;20590;-67
2023/11/08 11:31:43;;;;;;;6.35;1.70;;;11.40;99.90;;;;;;5023199;28;20029;-68
2023/11/08 11:34:29;;;;;;;12.05;2.00;;;11.30;99.90;;;;;;5027180;28;20116;-66
2023/11/08 11:37:03;;;;;;;8.65;1.75;;;11.20;99.90;;;;;;5025888;28;20021;-66
2023/11/08 11:39:32;;;;;;;8.45;3.42;;;11.10;99.90;;;;;;5027533;28;20112;-68
2023/11/08 11:42:25;;;;;;;6.28;2.00;;;11.10;99.90;;;;;;5026659;28;20028;-67
2023/11/08 11:44:51;;;;;;;9.00;3.13;;;11.10;99.90;;;;;;5005323;28;20049;-67
2023/11/08 11:47:18;;;;;;;11.98;4.15;;;11.20;99.90;;;;;;5024258;28;20021;-67
2023/11/08 11:49:48;;;;;;;18.42;7.55;;;11.20;99.90;;;;;;5028052;28;20138;-67
2023/11/08 11:52:18;;;;;;;18.58;6.20;;;11.30;99.90;;;;;;5026931;28;20036;-68
2023/11/08 11:54:52;;;;;;;20.88;7.05;;;11.30;99.90;;;;;;5027821;28;20037;-68
2023/11/08 11:57:19;;;;;;;7.35;2.95;;;11.30;99.90;;;;;;5025683;28;20030;-68
2023/11/08 11:59:55;;;;;;;8.25;3.05;;;11.30;99.90;;;;;;5027973;28;20078;-66
2023/11/08 12:02:21;;;;;;;16.40;5.20;;;11.30;99.90;;;;;;5026420;28;20038;-67
2023/11/08 12:04:48;;;;;;;8.52;2.75;;;11.40;99.90;;;;;;5022720;28;20037;-67
2023/11/08 12:07:16;;;;;;;4.22;1.50;;;11.40;99.90;;;;;;5026233;28;20029;-67
2023/11/08 12:09:42;;;;;;;11.40;3.90;;;11.70;99.90;;;;;;5025957;28;20029;-67
2023/11/08 12:12:09;;;;;;;13.70;3.42;;;11.80;99.90;;;;;;5027796;28;20041;-67
2023/11/08 12:14:38;;;;;;;13.18;5.50;;;12.00;99.90;;;;;;5027771;28;20535;-68
2023/11/08 12:17:04;;;;;;;10.75;3.78;;;12.10;99.90;;;;;;5025487;28;20060;-67
2023/11/08 12:19:33;;;;;;;13.95;4.30;;;12.20;99.90;;;;;;5026319;28;20499;-67
2023/11/08 12:22:00;;;;;;;7.78;2.78;;;12.40;99.90;;;;;;5026598;28;20570;-67
2023/11/08 12:24:29;;;;;;;4.57;1.35;;;12.30;99.90;;;;;;5026781;28;20025;-69
2023/11/08 12:26:55;;;;;;;6.25;2.45;;;12.30;99.90;;;;;;5026969;28;20025;-67
2023/11/08 12:29:21;;;;;;;6.80;2.47;;;12.40;99.90;;;;;;5026899;28;20045;-67
2023/11/08 12:31:47;;;;;;;8.63;2.22;;;12.40;99.90;;;;;;5026359;28;20025;-67
2023/11/08 12:34:14;;;;;;;5.07;2.42;;;12.60;99.90;;;;;;5026758;28;20402;-67
2023/11/08 12:36:40;;;;;;;4.80;1.70;;;12.50;99.90;;;;;;5025313;28;20030;-67
2023/11/08 12:39:18;;;;;;;4.78;1.50;;;12.50;99.90;;;;;;5024580;28;20025;-67
2023/11/08 12:41:46;;;;;;;4.82;1.48;;;12.60;99.90;;;;;;5026067;28;20029;-67
2023/11/08 12:44:13;;;;;;;5.90;2.55;;;12.70;99.90;;;;;;5015841;28;21392;-67
2023/11/08 12:46:53;;;;;;;5.03;1.10;;;12.70;99.90;;;;;;5026575;28;20101;-68
2023/11/08 12:49:32;;;;;;;5.45;1.33;;;12.80;99.90;;;;;;5025696;28;20667;-68
2023/11/08 12:52:10;;;;;;;3.60;1.25;;;12.80;99.90;;;;;;5026673;28;20037;-66